Saturday, July 21, 2018, 3:15 PM EDT
Back to Local

KLCI, Laconia, Laconia Municipal Airport

Location: Laconia, NH, United States Lat: 43.567
Local Time: 3:15 PM EDT (19:15 GMT) Lon: -71.417
Time Zone: US/Eastern Elev: 544 ft

Show me the last for .
Show Decoded

2018-07-21 14:56 METAR KLCI 211856Z AUTO 12006KT 10SM CLR 26/13 A3014 RMK AO2 SLP219 T02610128 =
2018-07-21 13:56 METAR KLCI 211756Z AUTO 12010KT 070V150 10SM FEW048 25/13 A3014 RMK AO2 SLP220
                 T02500133 10256 20178 58010 =
2018-07-21 12:56 METAR KLCI 211656Z AUTO 07009KT 10SM BKN044 24/14 A3016 RMK AO2 SLP226 T02440144
                 =
2018-07-21 11:56 METAR KLCI 211556Z AUTO 05008KT 10SM FEW026 BKN037 23/16 A3017 RMK AO2 SLP230
                 T02280156 =
2018-07-21 11:51 METAR KLCI 211551Z AUTO 02006KT 10SM SCT026 BKN037 22/16 A3017 RMK AO2 =
2018-07-21 11:32 METAR KLCI 211532Z AUTO 32004KT 10SM BKN024 BKN039 23/17 A3018 RMK AO2 =
2018-07-21 09:56 METAR KLCI 211356Z AUTO 06005KT 10SM CLR 21/16 A3019 RMK AO2 SLP235 T02060156 =
2018-07-21 08:56 METAR KLCI 211256Z AUTO VRB03KT 10SM CLR 19/15 A3019 RMK AO2 SLP235 T01890150 =
2018-07-21 07:56 METAR KLCI 211156Z AUTO 05004KT 10SM CLR 18/15 A3019 RMK AO2 SLP234 T01830150
                 10183 20117 50005 =
2018-07-21 06:56 METAR KLCI 211056Z AUTO 00000KT 10SM CLR 16/13 A3019 RMK AO2 SLP237 T01560133 =
2018-07-21 05:56 METAR KLCI 210956Z AUTO 00000KT 10SM CLR 12/11 A3019 RMK AO2 SLP235 T01170106 =
2018-07-21 04:56 METAR KLCI 210856Z AUTO 00000KT 10SM CLR 13/12 A3017 RMK AO2 SLP229 T01280117
                 55001 =
2018-07-21 03:56 METAR KLCI 210756Z AUTO 00000KT 10SM CLR 13/12 A3017 RMK AO2 SLP228 T01280122 =
2018-07-21 02:56 METAR KLCI 210656Z AUTO 00000KT 10SM CLR 13/12 A3017 RMK AO2 SLP228 T01280122 =
2018-07-21 01:56 METAR KLCI 210556Z AUTO 00000KT 10SM CLR 14/13 A3017 RMK AO2 SLP230 T01390128
                 10239 20139 56003 =
2018-07-21 00:56 METAR KLCI 210456Z AUTO 00000KT 10SM CLR 14/13 A3018 RMK AO2 SLP231 T01440128 =
2018-07-20 23:56 METAR KLCI 210356Z AUTO 00000KT 10SM CLR 16/13 A3018 RMK AO2 SLP230 T01610133
                 402940117 =
2018-07-20 21:56 METAR KLCI 210156Z AUTO 00000KT 10SM CLR 19/14 A3018 RMK AO2 SLP230 T01940139 =
2018-07-20 20:56 METAR KLCI 210056Z AUTO 00000KT 10SM CLR 21/14 A3016 RMK AO2 SLP227 T02060144 =
2018-07-20 19:56 METAR KLCI 202356Z AUTO 16006KT 10SM CLR 24/13 A3014 RMK AO2 SLP219 T02390133
                 10294 20239 53003 =
2018-07-20 18:56 METAR KLCI 202256Z AUTO 15009KT 10SM CLR 26/14 A3014 RMK AO2 SLP217 T02560144 =
2018-07-20 17:56 METAR KLCI 202156Z AUTO 15008KT 10SM CLR 28/14 A3013 RMK AO2 SLP216 T02780144 =
2018-07-20 16:56 METAR KLCI 202056Z AUTO VRB06KT 10SM CLR 28/13 A3013 RMK AO2 SLP216 T02830133
                 56010 =
2018-07-20 15:56 METAR KLCI 201956Z AUTO VRB06KT 10SM CLR 28/14 A3014 RMK AO2 SLP218 T02830144 =

Support USWX by starting your Amazon purchase here.